createdAt,value
2017-12-14T00:00:05.986Z,13.87
2017-12-14T00:02:39.298Z,12.50
2017-12-14T00:05:07.265Z,11.20
2017-12-14T00:07:37.336Z,11.30
2017-12-14T00:10:05.300Z,11.33
2017-12-14T00:12:33.244Z,12.57
2017-12-14T00:15:01.237Z,11.70
2017-12-14T00:17:29.253Z,12.30
2017-12-14T00:19:57.287Z,11.37
2017-12-14T00:22:27.265Z,11.97
2017-12-14T00:24:54.728Z,11.53
2017-12-14T00:27:22.665Z,11.83
2017-12-14T00:29:50.668Z,11.83
2017-12-14T00:32:18.637Z,10.40
2017-12-14T00:34:46.591Z,11.37
2017-12-14T00:37:14.599Z,9.63
2017-12-14T00:39:43.966Z,9.70
2017-12-14T00:42:12.248Z,9.87
2017-12-14T00:44:40.949Z,9.33
2017-12-14T00:47:08.920Z,8.60
2017-12-14T00:49:36.830Z,9.10
2017-12-14T00:52:04.856Z,8.50
2017-12-14T00:54:32.763Z,9.23
2017-12-14T00:57:00.977Z,9.33
2017-12-14T00:59:28.949Z,8.40
2017-12-14T01:01:57.643Z,9.30
2017-12-14T01:04:25.597Z,10.40
2017-12-14T01:06:53.591Z,9.93
2017-12-14T01:09:21.566Z,9.50
2017-12-14T01:11:49.561Z,10.57
2017-12-14T01:14:17.641Z,9.97
2017-12-14T01:16:45.649Z,11.13
2017-12-14T01:19:13.619Z,10.83
2017-12-14T01:21:41.639Z,10.47
2017-12-14T01:24:09.603Z,10.83
2017-12-14T01:26:37.580Z,10.18
2017-12-14T01:29:06.577Z,10.70
2017-12-14T01:31:34.569Z,11.83
2017-12-14T01:34:02.537Z,12.40
2017-12-14T01:36:30.532Z,11.47
2017-12-14T01:38:58.549Z,10.97
2017-12-14T01:41:26.582Z,10.10
2017-12-14T01:43:54.594Z,12.20
2017-12-14T01:46:27.598Z,11.83
2017-12-14T01:49:00.320Z,12.87
2017-12-14T01:51:28.960Z,10.83
2017-12-14T01:53:56.887Z,12.00
2017-12-14T01:56:24.855Z,12.50
2017-12-14T01:58:52.802Z,11.73
2017-12-14T02:01:20.723Z,12.60
2017-12-14T02:03:49.128Z,11.27
2017-12-14T02:06:17.102Z,11.57
2017-12-14T02:08:45.018Z,12.50
2017-12-14T02:11:12.943Z,11.67
2017-12-14T02:13:40.928Z,11.23
2017-12-14T02:16:08.880Z,11.33
2017-12-14T02:18:36.793Z,10.97
2017-12-14T02:21:05.876Z,11.73
2017-12-14T02:23:33.883Z,11.47
2017-12-14T02:26:02.105Z,11.53
2017-12-14T02:28:30.103Z,9.00
2017-12-14T02:30:58.139Z,9.90
2017-12-14T02:33:26.288Z,10.27
2017-12-14T02:35:54.284Z,9.47
2017-12-14T02:38:22.282Z,9.07
2017-12-14T02:40:50.215Z,8.87
2017-12-14T02:43:18.247Z,8.13
2017-12-14T02:45:46.780Z,8.50
2017-12-14T02:48:15.535Z,8.20
2017-12-14T02:50:43.509Z,7.90
2017-12-14T02:53:11.448Z,7.73
2017-12-14T02:55:39.412Z,7.70
2017-12-14T02:58:07.352Z,7.50
2017-12-14T03:00:35.313Z,7.57
2017-12-14T03:03:03.291Z,6.73
2017-12-14T03:05:31.250Z,7.55
2017-12-14T03:07:59.190Z,7.17
2017-12-14T03:10:27.742Z,7.57
2017-12-14T03:12:55.722Z,7.65
2017-12-14T03:15:23.694Z,5.57
2017-12-14T03:17:51.635Z,7.55
2017-12-14T03:20:19.573Z,7.62
2017-12-14T03:22:47.556Z,7.53
2017-12-14T03:25:15.516Z,6.50
2017-12-14T03:27:43.529Z,5.85
2017-12-14T03:30:11.494Z,5.90
2017-12-14T03:32:39.547Z,6.00
2017-12-14T03:35:07.510Z,5.57
2017-12-14T03:37:35.491Z,5.17
2017-12-14T03:40:03.470Z,4.40
2017-12-14T03:42:31.505Z,4.47
2017-12-14T03:44:59.478Z,3.60
2017-12-14T03:47:27.407Z,3.63
2017-12-14T03:49:55.433Z,4.70
2017-12-14T03:52:23.410Z,4.80
2017-12-14T03:54:51.328Z,5.50
2017-12-14T03:57:19.262Z,5.10
2017-12-14T03:59:47.606Z,4.67
2017-12-14T04:02:15.549Z,3.80
2017-12-14T04:04:43.567Z,3.43
2017-12-14T04:07:11.512Z,3.27
2017-12-14T04:09:39.504Z,3.50
2017-12-14T04:12:07.520Z,4.07
2017-12-14T04:14:35.526Z,3.50
2017-12-14T04:17:03.460Z,3.53
2017-12-14T04:19:32.159Z,4.05
2017-12-14T04:22:00.168Z,4.00
2017-12-14T04:24:28.117Z,4.25
2017-12-14T04:26:56.084Z,3.40
2017-12-14T04:29:24.034Z,4.00
2017-12-14T04:31:51.979Z,3.83
2017-12-14T04:34:19.911Z,4.20
2017-12-14T04:36:47.896Z,3.97
2017-12-14T04:39:15.866Z,4.50
2017-12-14T04:41:43.826Z,4.37
2017-12-14T04:44:11.802Z,4.73
2017-12-14T04:46:39.762Z,4.80
2017-12-14T04:49:07.726Z,4.77
2017-12-14T04:51:35.701Z,5.73
2017-12-14T04:54:03.606Z,5.17
2017-12-14T04:56:31.621Z,6.13
2017-12-14T04:58:59.552Z,6.83
2017-12-14T05:01:27.628Z,6.60
2017-12-14T05:03:55.560Z,6.87
2017-12-14T05:06:23.549Z,6.53
2017-12-14T05:08:51.519Z,6.60
2017-12-14T05:11:19.441Z,7.07
2017-12-14T05:13:47.402Z,7.83
2017-12-14T05:16:15.323Z,5.97
2017-12-14T05:18:43.299Z,7.20
2017-12-14T05:21:17.468Z,6.50
2017-12-14T05:23:45.429Z,6.57
2017-12-14T05:26:13.397Z,6.77
2017-12-14T05:28:41.372Z,6.77
2017-12-14T05:31:09.387Z,6.83
2017-12-14T05:33:37.334Z,7.53
2017-12-14T05:36:05.294Z,6.23
2017-12-14T05:38:33.979Z,6.90
2017-12-14T05:41:01.903Z,6.20
2017-12-14T05:43:29.878Z,6.77
2017-12-14T05:45:57.946Z,6.83
2017-12-14T05:48:25.850Z,7.20
2017-12-14T05:50:53.818Z,7.53
2017-12-14T05:53:21.725Z,6.80
2017-12-14T05:55:49.670Z,6.20
2017-12-14T05:58:17.728Z,5.87
2017-12-14T06:00:45.657Z,5.37
2017-12-14T06:03:13.668Z,5.33
2017-12-14T06:05:41.603Z,5.93
2017-12-14T06:08:09.535Z,5.47
2017-12-14T06:10:37.463Z,6.93
2017-12-14T06:13:05.653Z,4.80
2017-12-14T06:15:33.647Z,3.90
2017-12-14T06:18:01.695Z,4.10
2017-12-14T06:20:29.738Z,5.47
2017-12-14T06:22:57.689Z,5.37
2017-12-14T06:25:25.632Z,4.20
2017-12-14T06:27:53.652Z,4.30
2017-12-14T06:30:21.641Z,4.00
2017-12-14T06:32:49.596Z,3.60
2017-12-14T06:35:17.640Z,4.80
2017-12-14T06:37:45.638Z,4.07
2017-12-14T06:40:13.864Z,4.40
2017-12-14T06:42:41.867Z,4.80
2017-12-14T06:45:09.825Z,4.30
2017-12-14T06:47:37.744Z,4.80
2017-12-14T06:50:06.834Z,4.37
2017-12-14T06:52:34.862Z,3.70
2017-12-14T06:55:03.288Z,4.87
2017-12-14T06:57:31.262Z,4.73
2017-12-14T06:59:59.198Z,4.40
2017-12-14T07:02:27.216Z,4.27
2017-12-14T07:04:55.835Z,4.07
2017-12-14T07:07:29.622Z,7.83
2017-12-14T07:09:57.747Z,5.30
2017-12-14T07:12:25.711Z,4.53
2017-12-14T07:14:53.701Z,4.93
2017-12-14T07:17:22.641Z,5.37
2017-12-14T07:19:50.643Z,5.87
2017-12-14T07:22:18.553Z,7.10
2017-12-14T07:24:46.484Z,7.77
2017-12-14T07:27:14.474Z,4.83
2017-12-14T07:29:42.404Z,6.17
2017-12-14T07:32:10.377Z,4.83
2017-12-14T07:34:38.320Z,6.40
2017-12-14T07:37:06.370Z,6.60
2017-12-14T07:39:34.384Z,6.00
2017-12-14T07:42:02.517Z,4.90
2017-12-14T07:44:30.465Z,5.10
2017-12-14T07:47:10.369Z,6.23
2017-12-14T07:49:38.463Z,6.47
2017-12-14T07:52:06.442Z,6.37
2017-12-14T07:54:34.430Z,7.50
2017-12-14T07:57:02.382Z,6.30
2017-12-14T07:59:30.337Z,6.27
2017-12-14T08:01:58.393Z,6.03
2017-12-14T08:04:26.375Z,7.77
2017-12-14T08:06:54.321Z,7.20
2017-12-14T08:09:22.259Z,7.20
2017-12-14T08:11:50.253Z,8.13
2017-12-14T08:14:18.172Z,7.70
2017-12-14T08:16:46.667Z,8.67
2017-12-14T08:19:14.608Z,8.83
2017-12-14T08:21:42.665Z,7.60
2017-12-14T08:24:10.664Z,6.33
2017-12-14T08:26:38.607Z,8.13
2017-12-14T08:29:06.569Z,7.20
2017-12-14T08:31:34.582Z,7.30
2017-12-14T08:34:02.514Z,8.50
2017-12-14T08:36:30.801Z,6.83
2017-12-14T08:38:58.771Z,7.20
2017-12-14T08:41:26.746Z,6.77
2017-12-14T08:43:54.680Z,7.83
2017-12-14T08:46:22.710Z,6.73
2017-12-14T08:48:50.654Z,8.10
2017-12-14T08:51:18.579Z,6.40
2017-12-14T08:53:46.614Z,5.77
2017-12-14T08:56:14.543Z,5.97
2017-12-14T08:58:42.541Z,5.87
2017-12-14T09:01:10.495Z,8.10
2017-12-14T09:03:38.491Z,7.50
2017-12-14T09:06:06.474Z,7.53
2017-12-14T09:08:34.443Z,7.40
2017-12-14T09:11:02.425Z,6.63
2017-12-14T09:13:30.332Z,6.10
2017-12-14T09:15:58.249Z,7.67
2017-12-14T09:18:26.216Z,6.03
2017-12-14T09:20:54.291Z,7.80
2017-12-14T09:23:22.454Z,7.60
2017-12-14T09:25:50.582Z,6.60
2017-12-14T09:28:18.489Z,6.60
2017-12-14T09:30:46.437Z,5.67
2017-12-14T09:33:14.367Z,6.37
2017-12-14T09:35:42.308Z,6.23
2017-12-14T09:38:10.363Z,6.70
2017-12-14T09:40:38.462Z,6.03
2017-12-14T09:43:06.464Z,6.30
2017-12-14T09:45:34.490Z,8.63
2017-12-14T09:48:02.500Z,6.83
2017-12-14T09:50:30.459Z,7.90
2017-12-14T09:52:58.427Z,7.20
2017-12-14T09:55:26.349Z,6.87
2017-12-14T09:57:54.301Z,6.30
2017-12-14T10:00:22.274Z,6.80
2017-12-14T10:02:50.194Z,7.50
2017-12-14T10:05:18.183Z,7.00
2017-12-14T10:07:46.115Z,7.67
2017-12-14T10:10:14.044Z,7.50
2017-12-14T10:12:42.116Z,8.03
2017-12-14T10:15:10.908Z,8.63
2017-12-14T10:17:38.883Z,7.57
2017-12-14T10:20:06.867Z,7.13
2017-12-14T10:22:34.843Z,5.93
2017-12-14T10:25:02.774Z,7.57
2017-12-14T10:27:30.737Z,7.57
2017-12-14T10:29:58.673Z,7.47
2017-12-14T10:32:26.623Z,7.37
2017-12-14T10:34:54.577Z,9.70
2017-12-14T10:37:22.549Z,7.80
2017-12-14T10:39:50.510Z,7.60
2017-12-14T10:42:18.523Z,8.20
2017-12-14T10:44:46.519Z,8.37
2017-12-14T10:47:14.433Z,7.87
2017-12-14T10:49:42.403Z,8.60
2017-12-14T10:52:10.331Z,7.30
2017-12-14T10:54:38.329Z,7.60
2017-12-14T10:57:06.260Z,8.17
2017-12-14T10:59:34.242Z,7.33
2017-12-14T11:02:02.775Z,7.13
2017-12-14T11:04:30.714Z,6.23
2017-12-14T11:06:58.650Z,7.03
2017-12-14T11:09:26.623Z,7.00
2017-12-14T11:11:54.561Z,6.00
2017-12-14T11:14:22.577Z,6.43
2017-12-14T11:16:50.582Z,6.50
2017-12-14T11:19:18.526Z,7.30
2017-12-14T11:21:46.561Z,5.70
2017-12-14T11:24:14.608Z,4.70
2017-12-14T11:26:42.567Z,6.03
2017-12-14T11:29:10.507Z,5.60
2017-12-14T11:31:39.454Z,6.30
2017-12-14T11:34:07.600Z,5.73
2017-12-14T11:36:35.520Z,6.00
2017-12-14T11:39:04.473Z,6.80
2017-12-14T11:41:32.632Z,7.20
2017-12-14T11:44:00.597Z,6.27
2017-12-14T11:46:28.538Z,7.23
2017-12-14T11:48:56.690Z,5.10
2017-12-14T11:51:25.572Z,6.33
2017-12-14T11:53:53.538Z,7.60
2017-12-14T11:56:21.512Z,8.30
2017-12-14T11:58:49.522Z,9.30
2017-12-14T12:01:17.692Z,8.70
2017-12-14T12:03:45.705Z,8.93
2017-12-14T12:06:13.658Z,9.47
2017-12-14T12:08:41.698Z,8.40
2017-12-14T12:11:09.757Z,8.70
2017-12-14T12:13:38.336Z,9.07
2017-12-14T12:16:06.335Z,9.40
2017-12-14T12:18:34.376Z,8.20
2017-12-14T12:21:02.362Z,7.57
2017-12-14T12:23:30.456Z,7.53
2017-12-14T12:25:58.559Z,7.80
2017-12-14T12:28:26.866Z,7.07
2017-12-14T12:30:54.879Z,7.50
2017-12-14T12:33:22.877Z,6.47
2017-12-14T12:35:50.862Z,7.33
2017-12-14T12:38:18.895Z,6.47
2017-12-14T12:40:46.984Z,6.20
2017-12-14T12:43:14.955Z,5.30
2017-12-14T12:45:42.941Z,6.20
2017-12-14T12:48:10.890Z,6.53
2017-12-14T12:50:38.880Z,6.33
2017-12-14T12:53:06.843Z,6.53
2017-12-14T12:55:34.779Z,6.37
2017-12-14T12:58:02.706Z,6.60
2017-12-14T13:00:30.698Z,7.60
2017-12-14T13:02:58.658Z,6.23
2017-12-14T13:05:26.613Z,6.50
2017-12-14T13:07:54.576Z,6.13
2017-12-14T13:10:22.522Z,6.07
2017-12-14T13:12:50.432Z,6.40
2017-12-14T13:15:18.370Z,6.87
2017-12-14T13:17:46.359Z,6.50
2017-12-14T13:20:14.264Z,7.37
2017-12-14T13:22:42.246Z,6.47
2017-12-14T13:25:10.174Z,6.30
2017-12-14T13:27:38.205Z,7.30
2017-12-14T13:30:06.237Z,6.17
2017-12-14T13:32:34.409Z,7.00
2017-12-14T13:35:02.367Z,7.10
2017-12-14T13:37:30.351Z,6.30
2017-12-14T13:39:58.338Z,6.30
2017-12-14T13:42:26.260Z,6.03
2017-12-14T13:44:54.181Z,6.67
2017-12-14T13:47:22.153Z,6.30
2017-12-14T13:49:50.086Z,6.20
2017-12-14T13:52:18.042Z,6.30
2017-12-14T13:54:45.984Z,6.83
2017-12-14T13:57:13.893Z,6.80
2017-12-14T13:59:41.843Z,7.60
2017-12-14T14:02:10.295Z,7.10
2017-12-14T14:04:38.234Z,6.50
2017-12-14T14:07:06.284Z,8.00
2017-12-14T14:09:34.209Z,7.30
2017-12-14T14:12:02.159Z,6.87
2017-12-14T14:14:30.184Z,6.90
2017-12-14T14:16:58.325Z,6.57
2017-12-14T14:19:27.093Z,7.70
2017-12-14T14:21:55.027Z,7.13
2017-12-14T14:24:22.959Z,8.10
2017-12-14T14:26:50.966Z,7.70
2017-12-14T14:29:18.913Z,7.07
2017-12-14T14:31:46.851Z,6.60
2017-12-14T14:34:14.808Z,6.90
2017-12-14T14:36:42.860Z,6.40
2017-12-14T14:39:10.811Z,7.00
2017-12-14T14:41:38.823Z,6.30
2017-12-14T14:44:07.611Z,7.13
2017-12-14T14:46:35.942Z,6.50
2017-12-14T14:49:03.878Z,5.67
2017-12-14T14:51:31.821Z,6.10
2017-12-14T14:53:59.794Z,6.60
2017-12-14T14:56:27.770Z,6.63
2017-12-14T14:58:55.831Z,8.20
2017-12-14T15:01:23.797Z,6.50
2017-12-14T15:03:51.927Z,9.10
2017-12-14T15:06:20.712Z,7.00
2017-12-14T15:08:48.683Z,6.70
2017-12-14T15:11:16.649Z,5.47
2017-12-14T15:13:44.570Z,6.90
2017-12-14T15:16:12.499Z,6.90
2017-12-14T15:18:40.459Z,8.10
2017-12-14T15:21:08.381Z,7.73
2017-12-14T15:23:36.365Z,7.60
2017-12-14T15:26:04.323Z,8.20
2017-12-14T15:28:32.882Z,7.87
2017-12-14T15:31:01.032Z,7.80
2017-12-14T15:33:29.135Z,8.57
2017-12-14T15:35:57.161Z,7.70
2017-12-14T15:38:25.125Z,8.40
2017-12-14T15:40:53.056Z,8.03
2017-12-14T15:43:21.113Z,7.50
2017-12-14T15:45:49.129Z,7.60
2017-12-14T15:48:17.149Z,8.70
2017-12-14T15:50:45.189Z,7.17
2017-12-14T15:53:13.980Z,8.10
2017-12-14T15:55:41.962Z,8.30
2017-12-14T15:58:09.878Z,10.43
2017-12-14T16:00:38.675Z,7.47
2017-12-14T16:03:10.365Z,7.60
2017-12-14T16:05:38.443Z,8.00
2017-12-14T16:08:08.013Z,11.10
2017-12-14T16:10:35.953Z,8.60
2017-12-14T16:13:04.066Z,10.00
2017-12-14T16:15:32.121Z,9.80
2017-12-14T16:18:00.164Z,12.03
2017-12-14T16:20:28.119Z,15.90
2017-12-14T16:22:56.119Z,11.27
2017-12-14T16:25:24.070Z,11.27
2017-12-14T16:27:52.011Z,12.13
2017-12-14T16:30:20.015Z,11.63
2017-12-14T16:32:47.981Z,11.60
2017-12-14T16:35:15.947Z,11.93
2017-12-14T16:37:43.898Z,10.90
2017-12-14T16:40:11.911Z,10.77
2017-12-14T16:42:39.924Z,9.67
2017-12-14T16:45:08.761Z,11.10
2017-12-14T16:47:36.788Z,9.50
2017-12-14T16:50:04.762Z,10.67
2017-12-14T16:52:32.778Z,10.43
2017-12-14T16:55:00.878Z,10.20
2017-12-14T16:57:28.966Z,10.07
2017-12-14T16:59:57.067Z,10.90
2017-12-14T17:02:27.679Z,9.60
2017-12-14T17:04:55.667Z,9.87
2017-12-14T17:07:23.715Z,9.77
2017-12-14T17:09:51.691Z,10.20
2017-12-14T17:12:19.839Z,10.03
2017-12-14T17:14:48.527Z,15.33
2017-12-14T17:17:16.462Z,12.90
2017-12-14T17:19:44.459Z,11.27
2017-12-14T17:22:12.504Z,13.27
2017-12-14T17:24:41.329Z,11.83
2017-12-14T17:27:09.677Z,20.93
2017-12-14T17:29:37.784Z,13.43
2017-12-14T17:32:05.779Z,11.70
2017-12-14T17:34:34.511Z,12.47
2017-12-14T17:37:02.483Z,14.30
2017-12-14T17:39:31.131Z,11.07
2017-12-14T17:41:59.064Z,11.10
2017-12-14T17:44:27.010Z,12.30
2017-12-14T17:46:54.975Z,11.27
2017-12-14T17:49:22.937Z,12.37
2017-12-14T17:51:50.887Z,13.57
2017-12-14T17:54:18.850Z,11.97
2017-12-14T17:56:47.378Z,13.13
2017-12-14T17:59:15.403Z,12.90
2017-12-14T18:01:43.366Z,12.70
2017-12-14T18:04:11.375Z,14.00
2017-12-14T18:06:39.371Z,11.90
2017-12-14T18:09:07.328Z,13.23
2017-12-14T18:11:35.870Z,13.07
2017-12-14T18:14:04.133Z,14.03
2017-12-14T18:16:32.091Z,13.73
2017-12-14T18:19:00.036Z,13.10
2017-12-14T18:21:28.015Z,14.47
2017-12-14T18:23:56.003Z,15.80
2017-12-14T18:26:23.962Z,14.97
2017-12-14T18:28:52.016Z,17.30
2017-12-14T18:31:20.038Z,14.53
2017-12-14T18:33:48.257Z,12.53
2017-12-14T18:36:16.377Z,13.37
2017-12-14T18:38:44.434Z,13.23
2017-12-14T18:41:12.917Z,14.63
2017-12-14T18:43:40.895Z,15.10
2017-12-14T18:46:09.092Z,12.47
2017-12-14T18:48:37.022Z,12.03
2017-12-14T18:51:05.002Z,12.77
2017-12-14T18:53:32.978Z,12.27
2017-12-14T18:56:00.913Z,12.10
2017-12-14T18:58:28.865Z,12.40
2017-12-14T19:00:58.773Z,11.90
2017-12-14T19:03:27.046Z,11.43
2017-12-14T19:05:55.032Z,12.77
2017-12-14T19:08:23.008Z,10.03
2017-12-14T19:10:51.012Z,11.80
2017-12-14T19:13:18.971Z,12.63
2017-12-14T19:15:47.069Z,12.80
2017-12-14T19:18:15.023Z,12.00
2017-12-14T19:20:42.974Z,11.83
2017-12-14T19:23:10.955Z,11.83
2017-12-14T19:25:39.028Z,10.90
2017-12-14T19:28:07.122Z,11.00
2017-12-14T19:30:35.151Z,10.87
2017-12-14T19:33:03.128Z,11.33
2017-12-14T19:35:31.090Z,11.57
2017-12-14T19:37:59.091Z,11.00
2017-12-14T19:40:27.928Z,11.07
2017-12-14T19:42:55.956Z,9.93
2017-12-14T19:45:23.918Z,10.03
2017-12-14T19:47:52.019Z,11.30
2017-12-14T19:50:20.039Z,12.27
2017-12-14T19:52:48.067Z,10.73
2017-12-14T19:55:16.575Z,10.03
2017-12-14T19:57:44.658Z,9.63
2017-12-14T20:00:12.559Z,9.83
2017-12-14T20:02:40.487Z,10.50
2017-12-14T20:05:08.430Z,9.80
2017-12-14T20:07:36.464Z,9.97
2017-12-14T20:10:04.408Z,11.30
2017-12-14T20:12:32.366Z,11.17
2017-12-14T20:15:00.376Z,9.80
2017-12-14T20:17:28.519Z,10.47
2017-12-14T20:19:56.451Z,10.30
2017-12-14T20:22:24.457Z,11.53
2017-12-14T20:24:52.499Z,11.10
2017-12-14T20:27:20.475Z,13.23
2017-12-14T20:29:48.442Z,11.30
2017-12-14T20:32:16.435Z,11.47
2017-12-14T20:34:44.387Z,11.77
2017-12-14T20:37:12.319Z,11.43
2017-12-14T20:39:40.437Z,10.90
2017-12-14T20:42:08.473Z,13.27
2017-12-14T20:44:36.512Z,12.00
2017-12-14T20:47:04.488Z,11.03
2017-12-14T20:49:32.525Z,11.40
2017-12-14T20:52:00.540Z,11.60
2017-12-14T20:54:28.499Z,11.97
2017-12-14T20:56:56.502Z,12.00
2017-12-14T20:59:24.436Z,12.07
2017-12-14T21:01:52.394Z,11.87
2017-12-14T21:04:20.416Z,13.50
2017-12-14T21:06:48.447Z,12.87
2017-12-14T21:09:16.449Z,12.47
2017-12-14T21:11:44.435Z,13.03
2017-12-14T21:14:12.403Z,13.37
2017-12-14T21:16:40.424Z,12.60
2017-12-14T21:19:08.426Z,11.83
2017-12-14T21:21:36.391Z,12.67
2017-12-14T21:24:04.407Z,13.20
2017-12-14T21:26:32.524Z,12.33
2017-12-14T21:29:01.033Z,12.97
2017-12-14T21:31:29.173Z,11.77
2017-12-14T21:33:57.226Z,13.07
2017-12-14T21:36:25.966Z,13.40
2017-12-14T21:38:53.925Z,11.90
2017-12-14T21:41:22.449Z,12.90
2017-12-14T21:43:50.559Z,14.17
2017-12-14T21:46:18.627Z,11.73
2017-12-14T21:48:46.637Z,12.77
2017-12-14T21:51:14.691Z,11.73
2017-12-14T21:53:42.697Z,14.00
2017-12-14T21:56:10.740Z,12.30
2017-12-14T21:58:38.787Z,11.83
2017-12-14T22:01:06.798Z,11.73
2017-12-14T22:03:34.829Z,12.90
2017-12-14T22:06:03.142Z,12.00
2017-12-14T22:08:32.463Z,12.50
2017-12-14T22:11:00.499Z,13.50
2017-12-14T22:13:29.327Z,12.43
2017-12-14T22:15:57.443Z,12.40
2017-12-14T22:18:25.507Z,13.17
2017-12-14T22:20:54.453Z,13.10
2017-12-14T22:23:22.399Z,12.10
2017-12-14T22:25:50.346Z,13.17
2017-12-14T22:28:18.348Z,12.80
2017-12-14T22:30:46.334Z,11.83
2017-12-14T22:33:14.912Z,11.67
2017-12-14T22:35:42.994Z,13.13
2017-12-14T22:38:10.907Z,12.73
2017-12-14T22:40:39.167Z,10.27
2017-12-14T22:43:08.028Z,11.30
2017-12-14T22:45:36.050Z,13.37
2017-12-14T22:48:04.171Z,11.70
2017-12-14T22:50:32.110Z,12.77
2017-12-14T22:53:00.576Z,11.80
2017-12-14T22:55:28.538Z,11.20
2017-12-14T22:57:56.558Z,11.90
2017-12-14T23:00:24.550Z,11.97
2017-12-14T23:02:52.668Z,10.23
2017-12-14T23:05:20.676Z,10.60
2017-12-14T23:07:48.726Z,10.00
2017-12-14T23:10:16.710Z,10.73
2017-12-14T23:12:45.299Z,12.30
2017-12-14T23:15:13.239Z,10.77
2017-12-14T23:17:41.183Z,10.33
2017-12-14T23:20:09.160Z,11.63
2017-12-14T23:22:37.112Z,9.53
2017-12-14T23:25:05.147Z,10.43
2017-12-14T23:27:33.106Z,10.60
2017-12-14T23:30:01.048Z,11.40
2017-12-14T23:35:03.405Z,10.00
2017-12-14T23:37:31.537Z,11.00
2017-12-14T23:39:59.465Z,10.97
2017-12-14T23:42:27.433Z,11.03
2017-12-14T23:44:55.678Z,11.67
2017-12-14T23:47:23.686Z,10.83
2017-12-14T23:49:51.808Z,10.90
2017-12-14T23:52:19.854Z,10.37
2017-12-14T23:54:47.842Z,10.40
2017-12-14T23:57:15.832Z,12.30
2017-12-14T23:59:43.853Z,11.33
